createdAt,value
2023-07-25T00:01:15.269Z,12.30
2023-07-25T00:03:43.381Z,14.40
2023-07-25T00:06:11.427Z,13.40
2023-07-25T00:08:39.627Z,12.70
2023-07-25T00:11:13.336Z,12.80
2023-07-25T00:13:41.821Z,13.90
2023-07-25T00:16:09.956Z,13.90
2023-07-25T00:18:37.895Z,12.90
2023-07-25T00:21:05.838Z,14.40
2023-07-25T00:23:33.898Z,13.10
2023-07-25T00:26:01.998Z,13.60
2023-07-25T00:28:30.006Z,12.90
2023-07-25T00:30:58.113Z,13.10
2023-07-25T00:33:26.191Z,12.80
2023-07-25T00:35:54.521Z,13.60
2023-07-25T00:38:22.538Z,12.90
2023-07-25T00:40:50.646Z,12.90
2023-07-25T00:43:18.740Z,12.70
2023-07-25T00:45:46.825Z,12.80
2023-07-25T00:48:14.924Z,12.90
2023-07-25T00:50:43.057Z,14.10
2023-07-25T00:53:12.598Z,13.40
2023-07-25T00:55:40.764Z,13.60
2023-07-25T00:58:08.758Z,13.80
2023-07-25T01:00:39.505Z,14.10
2023-07-25T01:03:08.145Z,14.10
2023-07-25T01:05:48.518Z,14.30
2023-07-25T01:08:16.759Z,13.60
2023-07-25T01:10:44.757Z,14.40
2023-07-25T01:13:12.739Z,14.50
2023-07-25T01:15:41.379Z,14.70
2023-07-25T01:18:10.604Z,12.90
2023-07-25T01:20:40.448Z,13.60
2023-07-25T01:23:12.076Z,12.80
2023-07-25T01:25:40.346Z,14.00
2023-07-25T01:28:08.267Z,14.30
2023-07-25T01:30:36.246Z,14.70
2023-07-25T01:33:04.311Z,14.50
2023-07-25T01:35:32.498Z,14.30
2023-07-25T01:38:00.594Z,14.10
2023-07-25T01:40:28.701Z,13.90
2023-07-25T01:42:56.947Z,14.10
2023-07-25T01:45:25.117Z,14.40
2023-07-25T01:47:53.219Z,15.20
2023-07-25T01:50:21.249Z,15.60
2023-07-25T01:52:49.357Z,14.50
2023-07-25T01:55:17.394Z,14.20
2023-07-25T01:57:45.467Z,13.90
2023-07-25T02:00:13.972Z,14.20
2023-07-25T02:02:42.150Z,15.40
2023-07-25T02:05:10.364Z,16.50
2023-07-25T02:07:38.539Z,16.30
2023-07-25T02:10:07.231Z,16.30
2023-07-25T02:12:35.249Z,17.90
2023-07-25T02:15:03.406Z,15.40
2023-07-25T02:17:31.751Z,15.90
2023-07-25T02:20:00.018Z,16.10
2023-07-25T02:22:28.027Z,15.70
2023-07-25T02:24:57.727Z,16.70
2023-07-25T02:27:25.896Z,16.10
2023-07-25T02:29:56.910Z,16.00
2023-07-25T02:32:25.152Z,15.90
2023-07-25T02:34:53.264Z,15.50
2023-07-25T02:37:21.408Z,16.30
2023-07-25T02:39:49.443Z,16.30
2023-07-25T02:42:17.586Z,15.60
2023-07-25T02:44:45.717Z,15.60
2023-07-25T02:47:13.814Z,16.80
2023-07-25T02:49:41.839Z,15.30
2023-07-25T02:52:09.979Z,14.60
2023-07-25T02:54:38.082Z,15.20
2023-07-25T02:57:07.086Z,15.50
2023-07-25T02:59:35.215Z,16.00
2023-07-25T03:02:03.408Z,16.60
2023-07-25T03:04:31.483Z,15.30
2023-07-25T03:06:59.522Z,15.30
2023-07-25T03:09:27.412Z,19.70
2023-07-25T03:11:55.767Z,19.00
2023-07-25T03:14:23.761Z,18.20
2023-07-25T03:16:52.437Z,21.10
2023-07-25T03:19:20.782Z,19.50
2023-07-25T03:21:49.006Z,20.50
2023-07-25T03:24:17.220Z,18.00
2023-07-25T03:26:45.407Z,18.80
2023-07-25T03:29:13.736Z,18.00
2023-07-25T03:31:41.783Z,19.30
2023-07-25T03:34:09.890Z,19.30
2023-07-25T03:36:37.912Z,18.70
2023-07-25T03:39:05.908Z,18.40
2023-07-25T03:41:34.052Z,18.10
2023-07-25T03:44:02.371Z,16.80
2023-07-25T03:46:30.382Z,16.40
2023-07-25T03:48:59.541Z,15.00
2023-07-25T03:51:27.539Z,14.30
2023-07-25T03:53:55.836Z,16.90
2023-07-25T03:56:24.138Z,14.90
2023-07-25T03:58:52.212Z,16.20
2023-07-25T04:01:20.314Z,20.10
2023-07-25T04:03:48.605Z,18.20
2023-07-25T04:06:16.885Z,18.30
2023-07-25T04:08:45.214Z,17.20
2023-07-25T04:11:14.332Z,16.60
2023-07-25T04:13:42.301Z,17.40
2023-07-25T04:16:10.398Z,16.10
2023-07-25T04:18:38.436Z,16.50
2023-07-25T04:21:06.429Z,16.90
2023-07-25T04:23:34.408Z,15.90
2023-07-25T04:26:02.373Z,17.40
2023-07-25T04:28:32.610Z,15.40
2023-07-25T04:31:00.944Z,17.20
2023-07-25T04:33:29.177Z,16.00
2023-07-25T04:35:57.080Z,16.00
2023-07-25T04:38:25.224Z,15.50
2023-07-25T04:40:53.339Z,16.00
2023-07-25T04:43:21.686Z,14.90
2023-07-25T04:45:54.674Z,15.50
2023-07-25T04:48:23.370Z,15.20
2023-07-25T04:50:51.625Z,14.60
2023-07-25T04:53:19.691Z,14.10
2023-07-25T04:55:47.862Z,14.90
2023-07-25T04:58:15.814Z,13.90
2023-07-25T05:00:43.834Z,13.70
2023-07-25T05:03:11.994Z,14.20
2023-07-25T05:05:40.729Z,14.70
2023-07-25T05:08:08.955Z,14.80
2023-07-25T05:10:37.200Z,14.20
2023-07-25T05:13:05.497Z,14.00
2023-07-25T05:15:33.715Z,14.70
2023-07-25T05:18:01.990Z,15.10
2023-07-25T05:20:30.272Z,14.80
2023-07-25T05:22:58.549Z,15.30
2023-07-25T05:25:26.721Z,14.20
2023-07-25T05:27:54.841Z,15.50
2023-07-25T05:30:22.919Z,14.70
2023-07-25T05:32:51.336Z,14.10
2023-07-25T05:35:19.497Z,14.90
2023-07-25T05:37:47.807Z,14.30
2023-07-25T05:40:15.994Z,14.70
2023-07-25T05:42:43.919Z,15.40
2023-07-25T05:45:11.964Z,16.10
2023-07-25T05:47:40.107Z,14.30
2023-07-25T05:50:09.268Z,14.80
2023-07-25T05:52:37.463Z,13.50
2023-07-25T05:55:05.815Z,13.60
2023-07-25T05:57:33.935Z,14.40
2023-07-25T06:00:02.572Z,15.30
2023-07-25T06:02:33.307Z,16.20
2023-07-25T06:05:01.699Z,16.20
2023-07-25T06:07:30.024Z,18.50
2023-07-25T06:09:58.242Z,41.50
2023-07-25T06:12:26.978Z,20.40
2023-07-25T06:14:55.319Z,16.00
2023-07-25T06:17:23.539Z,15.80
2023-07-25T06:19:51.886Z,15.10
2023-07-25T06:22:20.091Z,16.10
2023-07-25T06:24:48.991Z,13.80
2023-07-25T06:27:17.082Z,15.60
2023-07-25T06:29:45.336Z,15.00
2023-07-25T06:32:13.585Z,14.00
2023-07-25T06:34:41.846Z,11.60
2023-07-25T06:37:10.359Z,11.30
2023-07-25T06:39:38.536Z,10.80
2023-07-25T06:42:07.769Z,10.10
2023-07-25T06:44:37.865Z,10.00
2023-07-25T06:47:06.553Z,9.30
2023-07-25T06:49:34.880Z,9.90
2023-07-25T06:52:03.536Z,9.80
2023-07-25T06:54:31.855Z,9.20
2023-07-25T06:57:00.344Z,9.20
2023-07-25T06:59:31.054Z,9.60
2023-07-25T07:01:59.305Z,13.20
2023-07-25T07:04:27.668Z,40.20
2023-07-25T07:06:55.950Z,12.10
2023-07-25T07:09:24.308Z,10.50
2023-07-25T07:11:52.560Z,10.20
2023-07-25T07:14:20.736Z,10.40
2023-07-25T07:16:48.941Z,11.00
2023-07-25T07:19:17.408Z,10.80
2023-07-25T07:21:45.771Z,11.30
2023-07-25T07:24:14.116Z,10.30
2023-07-25T07:26:42.326Z,9.90
2023-07-25T07:29:12.817Z,10.70
2023-07-25T07:31:41.322Z,10.60
2023-07-25T07:34:17.129Z,10.70
2023-07-25T07:36:46.460Z,11.10
2023-07-25T07:39:14.879Z,11.60
2023-07-25T07:41:43.145Z,11.60
2023-07-25T07:44:11.304Z,11.00
2023-07-25T07:46:39.632Z,11.70
2023-07-25T07:49:07.743Z,11.80
2023-07-25T07:51:35.976Z,11.50
2023-07-25T07:54:04.232Z,10.80
2023-07-25T07:56:32.738Z,11.00
2023-07-25T07:59:01.118Z,11.40
2023-07-25T08:01:30.172Z,11.40
2023-07-25T08:03:59.009Z,12.00
2023-07-25T08:06:29.329Z,11.10
2023-07-25T08:08:57.883Z,11.90
2023-07-25T08:11:26.105Z,11.20
2023-07-25T08:13:54.535Z,11.50
2023-07-25T08:16:23.525Z,11.60
2023-07-25T08:18:51.848Z,11.50
2023-07-25T08:21:20.212Z,11.90
2023-07-25T08:23:48.534Z,11.60
2023-07-25T08:26:17.012Z,13.20
2023-07-25T08:28:45.350Z,11.70
2023-07-25T08:31:13.609Z,19.90
2023-07-25T08:33:44.160Z,12.00
2023-07-25T08:36:12.465Z,11.80
2023-07-25T08:38:42.437Z,11.70
2023-07-25T08:41:14.259Z,11.40
2023-07-25T08:43:44.612Z,10.60
2023-07-25T08:46:15.053Z,11.10
2023-07-25T08:48:44.094Z,11.30
2023-07-25T08:51:21.438Z,11.00
2023-07-25T08:54:08.040Z,11.30
2023-07-25T08:56:36.891Z,10.70
2023-07-25T08:59:06.570Z,11.10
2023-07-25T09:01:35.900Z,11.70
2023-07-25T09:04:05.574Z,11.40
2023-07-25T09:06:34.657Z,11.10
2023-07-25T09:09:02.973Z,11.30
2023-07-25T09:11:31.452Z,10.50
2023-07-25T09:14:00.446Z,11.50
2023-07-25T09:16:28.983Z,11.20
2023-07-25T09:18:58.030Z,10.90
2023-07-25T09:21:26.708Z,12.20
2023-07-25T09:24:00.620Z,11.20
2023-07-25T09:26:32.274Z,11.20
2023-07-25T09:29:02.057Z,12.30
2023-07-25T09:31:30.528Z,11.30
2023-07-25T09:33:59.100Z,11.50
2023-07-25T09:36:31.790Z,12.50
2023-07-25T09:39:00.514Z,12.50
2023-07-25T09:41:29.135Z,11.90
2023-07-25T09:44:06.567Z,11.90
2023-07-25T09:46:34.969Z,12.30
2023-07-25T09:49:07.773Z,12.50
2023-07-25T09:51:36.466Z,11.80
2023-07-25T09:54:09.209Z,12.50
2023-07-25T09:56:39.059Z,12.40
2023-07-25T09:59:07.829Z,11.50
2023-07-25T10:01:39.942Z,11.70
2023-07-25T10:04:11.337Z,11.40
2023-07-25T10:06:42.553Z,10.80
2023-07-25T10:09:13.030Z,11.90
2023-07-25T10:11:41.997Z,12.10
2023-07-25T10:14:10.817Z,13.70
2023-07-25T10:16:40.327Z,14.90
2023-07-25T10:19:09.040Z,10.10
2023-07-25T10:21:49.956Z,10.70
2023-07-25T10:24:20.217Z,10.70
2023-07-25T10:26:59.862Z,10.10
2023-07-25T10:29:47.240Z,9.30
2023-07-25T10:32:18.224Z,10.00
2023-07-25T10:35:04.394Z,10.10
2023-07-25T10:37:41.893Z,9.60
2023-07-25T10:40:18.665Z,10.30
2023-07-25T10:45:30.929Z,9.00
2023-07-25T10:50:53.263Z,9.40
2023-07-25T10:53:24.082Z,10.00
2023-07-25T10:56:07.783Z,10.60
2023-07-25T11:01:37.617Z,9.30
2023-07-25T11:04:26.033Z,10.00
2023-07-25T11:06:59.552Z,10.50
2023-07-25T11:09:28.408Z,10.10
2023-07-25T11:11:57.350Z,9.50
2023-07-25T11:14:26.089Z,9.30
2023-07-25T11:16:55.686Z,9.60
2023-07-25T11:19:28.067Z,9.10
2023-07-25T11:21:56.550Z,10.30
2023-07-25T11:24:24.958Z,9.60
2023-07-25T11:26:53.419Z,9.30
2023-07-25T11:29:23.754Z,10.10
2023-07-25T11:31:52.104Z,9.70
2023-07-25T11:34:21.818Z,10.00
2023-07-25T11:36:50.216Z,9.40
2023-07-25T11:39:19.278Z,9.30
2023-07-25T11:41:47.879Z,9.00
2023-07-25T11:44:18.250Z,9.60
2023-07-25T11:46:53.965Z,9.40
2023-07-25T11:49:40.168Z,9.70
2023-07-25T11:52:11.730Z,9.10
2023-07-25T11:54:40.236Z,9.80
2023-07-25T11:57:09.966Z,9.90
2023-07-25T11:59:42.144Z,9.90
2023-07-25T12:02:13.794Z,10.00
2023-07-25T12:04:46.431Z,13.70
2023-07-25T12:07:15.264Z,9.60
2023-07-25T12:09:51.977Z,10.10
2023-07-25T12:12:23.441Z,10.40
2023-07-25T12:14:59.516Z,9.80
2023-07-25T12:17:46.720Z,10.10
2023-07-25T12:20:16.455Z,9.40
2023-07-25T12:22:46.511Z,11.00
2023-07-25T12:25:20.001Z,9.30
2023-07-25T12:27:49.676Z,9.50
2023-07-25T12:30:18.062Z,9.50
2023-07-25T12:32:46.401Z,10.30
2023-07-25T12:35:14.625Z,10.00
2023-07-25T12:37:42.847Z,10.30
2023-07-25T12:40:11.664Z,10.00
2023-07-25T12:42:39.903Z,10.20
2023-07-25T12:45:11.027Z,8.70
2023-07-25T12:47:40.246Z,9.70
2023-07-25T12:50:10.134Z,8.90
2023-07-25T12:52:38.920Z,9.90
2023-07-25T12:55:08.367Z,9.00
2023-07-25T12:57:38.392Z,9.30
2023-07-25T13:00:08.998Z,9.80
2023-07-25T13:02:38.264Z,10.00
2023-07-25T13:05:08.191Z,9.40
2023-07-25T13:07:36.708Z,10.10
2023-07-25T13:10:07.885Z,9.80
2023-07-25T13:12:36.322Z,9.60
2023-07-25T13:15:08.826Z,10.30
2023-07-25T13:17:37.204Z,10.00
2023-07-25T13:20:10.058Z,10.40
2023-07-25T13:22:38.552Z,9.90
2023-07-25T13:25:07.256Z,10.40
2023-07-25T13:27:35.465Z,9.70
2023-07-25T13:30:04.160Z,10.40
2023-07-25T13:32:32.429Z,9.40
2023-07-25T13:35:00.743Z,12.80
2023-07-25T13:37:29.234Z,9.50
2023-07-25T13:39:57.537Z,9.50
2023-07-25T13:42:27.184Z,9.80
2023-07-25T13:44:55.407Z,9.80
2023-07-25T13:47:23.756Z,9.70
2023-07-25T13:49:52.140Z,9.30
2023-07-25T13:52:20.294Z,9.00
2023-07-25T13:54:48.631Z,9.80
2023-07-25T13:57:17.175Z,9.40
2023-07-25T13:59:45.800Z,9.20
2023-07-25T14:02:14.142Z,8.00
2023-07-25T14:04:42.574Z,8.50
2023-07-25T14:07:11.685Z,8.90
2023-07-25T14:09:40.219Z,8.80
2023-07-25T14:12:08.963Z,8.40
2023-07-25T14:14:37.538Z,9.00
2023-07-25T14:17:08.141Z,8.70
2023-07-25T14:19:36.408Z,9.20
2023-07-25T14:22:05.664Z,8.70
2023-07-25T14:24:34.959Z,9.00
2023-07-25T14:27:03.477Z,9.30
2023-07-25T14:29:31.727Z,7.70
2023-07-25T14:32:00.005Z,8.20
2023-07-25T14:34:28.625Z,8.80
2023-07-25T14:36:57.221Z,8.90
2023-07-25T14:39:25.873Z,8.30
2023-07-25T14:41:54.726Z,8.80
2023-07-25T14:44:23.271Z,9.60
2023-07-25T14:46:51.991Z,8.80
2023-07-25T14:49:20.510Z,9.80
2023-07-25T14:51:48.806Z,9.20
2023-07-25T14:54:17.917Z,8.70
2023-07-25T14:56:46.577Z,8.70
2023-07-25T14:59:14.880Z,8.30
2023-07-25T15:01:43.318Z,9.60
2023-07-25T15:04:11.969Z,7.90
2023-07-25T15:06:41.087Z,6.10
2023-07-25T15:09:09.956Z,5.70
2023-07-25T15:11:38.638Z,4.80
2023-07-25T15:14:06.920Z,4.70
2023-07-25T15:16:35.775Z,5.40
2023-07-25T15:19:07.110Z,4.90
2023-07-25T15:21:35.581Z,5.00
2023-07-25T15:24:04.454Z,4.80
2023-07-25T15:26:33.545Z,5.20
2023-07-25T15:29:02.348Z,5.50
2023-07-25T15:31:32.145Z,5.40
2023-07-25T15:34:00.613Z,5.20
2023-07-25T15:36:28.834Z,5.90
2023-07-25T15:38:57.098Z,5.80
2023-07-25T15:41:25.798Z,6.20
2023-07-25T15:43:54.160Z,5.80
2023-07-25T15:46:22.441Z,4.90
2023-07-25T15:48:50.682Z,4.60
2023-07-25T15:51:20.570Z,4.90
2023-07-25T15:53:48.746Z,4.90
2023-07-25T15:56:17.135Z,5.20
2023-07-25T15:58:45.695Z,5.70
2023-07-25T16:01:14.560Z,5.30
2023-07-25T16:03:47.214Z,5.00
2023-07-25T16:06:15.586Z,5.40
2023-07-25T16:08:43.993Z,5.10
2023-07-25T16:11:12.229Z,5.30
2023-07-25T16:13:41.304Z,5.90
2023-07-25T16:16:09.714Z,6.10
2023-07-25T16:18:38.220Z,5.50
2023-07-25T16:21:06.519Z,5.60
2023-07-25T16:23:34.727Z,5.80
2023-07-25T16:26:04.506Z,5.20
2023-07-25T16:28:33.329Z,6.10
2023-07-25T16:31:30.622Z,5.60
2023-07-25T16:33:51.025Z,4.90
2023-07-25T16:36:19.212Z,5.60
2023-07-25T16:38:47.633Z,5.10
2023-07-25T16:41:15.732Z,5.20
2023-07-25T16:43:44.233Z,5.50
2023-07-25T16:46:12.517Z,5.30
2023-07-25T16:48:40.633Z,5.40
2023-07-25T16:51:08.995Z,4.90
2023-07-25T16:53:37.154Z,6.10
2023-07-25T16:56:06.266Z,5.70
2023-07-25T16:58:35.041Z,6.60
2023-07-25T17:01:04.829Z,6.60
2023-07-25T17:03:34.229Z,7.20
2023-07-25T17:06:05.066Z,6.40
2023-07-25T17:08:33.881Z,6.90
2023-07-25T17:11:06.137Z,6.70
2023-07-25T17:13:35.189Z,7.20
2023-07-25T17:16:03.480Z,6.70
2023-07-25T17:18:31.686Z,6.50
2023-07-25T17:20:59.708Z,7.00
2023-07-25T17:23:28.083Z,6.50
2023-07-25T17:25:56.594Z,6.50
2023-07-25T17:28:24.793Z,6.50
2023-07-25T17:30:52.773Z,6.40
2023-07-25T17:33:20.931Z,6.60
2023-07-25T17:35:49.074Z,6.40
2023-07-25T17:38:19.027Z,6.30
2023-07-25T17:40:48.734Z,6.10
2023-07-25T17:43:17.138Z,6.40
2023-07-25T17:45:45.503Z,6.80
2023-07-25T17:48:14.942Z,6.70
2023-07-25T17:50:43.065Z,7.00
2023-07-25T17:53:11.796Z,6.60
2023-07-25T17:55:41.692Z,6.60
2023-07-25T17:58:12.149Z,6.50
2023-07-25T18:00:40.704Z,6.60
2023-07-25T18:03:09.093Z,6.90
2023-07-25T18:05:37.314Z,7.50
2023-07-25T18:08:05.702Z,7.40
2023-07-25T18:10:33.736Z,8.30
2023-07-25T18:13:01.773Z,7.20
2023-07-25T18:15:30.764Z,7.70
2023-07-25T18:18:00.063Z,7.30
2023-07-25T18:20:29.138Z,7.70
2023-07-25T18:22:57.248Z,7.50
2023-07-25T18:25:25.485Z,7.20
2023-07-25T18:27:53.595Z,6.80
2023-07-25T18:30:21.652Z,7.50
2023-07-25T18:32:49.930Z,7.20
2023-07-25T18:35:18.254Z,7.00
2023-07-25T18:37:49.346Z,7.10
2023-07-25T18:40:18.471Z,7.20
2023-07-25T18:42:46.715Z,7.00
2023-07-25T18:45:15.497Z,7.10
2023-07-25T18:47:43.638Z,7.50
2023-07-25T18:50:11.885Z,8.00
2023-07-25T18:52:39.989Z,7.90
2023-07-25T18:55:10.496Z,6.40
2023-07-25T18:57:38.795Z,7.30
2023-07-25T19:00:08.398Z,10.30
2023-07-25T19:02:36.559Z,12.00
2023-07-25T19:05:05.206Z,12.90
2023-07-25T19:07:33.352Z,7.90
2023-07-25T19:10:01.494Z,6.80
2023-07-25T19:12:29.908Z,5.80
2023-07-25T19:14:58.186Z,5.90
2023-07-25T19:17:26.387Z,5.80
2023-07-25T19:19:54.487Z,6.00
2023-07-25T19:22:22.529Z,5.60
2023-07-25T19:24:50.633Z,6.90
2023-07-25T19:27:18.774Z,6.00
2023-07-25T19:29:46.742Z,5.40
2023-07-25T19:32:14.930Z,4.70
2023-07-25T19:34:42.962Z,4.30
2023-07-25T19:37:11.124Z,3.90
2023-07-25T19:39:39.198Z,3.20
2023-07-25T19:42:07.289Z,3.60
2023-07-25T19:44:36.146Z,3.60
2023-07-25T19:47:06.103Z,3.80
2023-07-25T19:49:34.394Z,3.30
2023-07-25T19:52:02.538Z,3.40
2023-07-25T19:54:31.535Z,3.00
2023-07-25T19:56:59.590Z,3.40
2023-07-25T19:59:27.822Z,3.50
2023-07-25T20:01:55.868Z,3.10
2023-07-25T20:04:23.697Z,3.00
2023-07-25T20:06:51.918Z,3.70
2023-07-25T20:09:19.857Z,3.30
2023-07-25T20:11:47.842Z,3.70
2023-07-25T20:14:15.780Z,3.40
2023-07-25T20:16:43.956Z,3.30
2023-07-25T20:19:11.894Z,3.30
2023-07-25T20:21:39.822Z,3.20
2023-07-25T20:24:12.722Z,3.30
2023-07-25T20:26:41.382Z,3.80
2023-07-25T20:29:09.637Z,3.70
2023-07-25T20:31:37.657Z,3.50
2023-07-25T20:34:05.650Z,4.00
2023-07-25T20:36:34.064Z,3.40
2023-07-25T20:39:02.451Z,3.70
2023-07-25T20:41:30.581Z,3.60
2023-07-25T20:43:59.048Z,4.10
2023-07-25T20:46:27.227Z,4.30
2023-07-25T20:48:55.313Z,5.00
2023-07-25T20:51:23.805Z,3.80
2023-07-25T20:53:52.562Z,4.70
2023-07-25T20:56:21.023Z,3.90
2023-07-25T20:58:49.037Z,4.20
2023-07-25T21:01:17.561Z,4.10
2023-07-25T21:03:45.725Z,4.30
2023-07-25T21:06:13.893Z,4.90
2023-07-25T21:08:42.039Z,4.20
2023-07-25T21:11:10.235Z,4.40
2023-07-25T21:13:38.414Z,4.30
2023-07-25T21:16:06.516Z,4.40
2023-07-25T21:18:34.714Z,4.50
2023-07-25T21:21:02.949Z,4.40
2023-07-25T21:23:31.177Z,3.70
2023-07-25T21:25:59.213Z,4.70
2023-07-25T21:28:27.302Z,4.20
2023-07-25T21:30:55.381Z,4.20
2023-07-25T21:33:25.274Z,4.40
2023-07-25T21:36:11.077Z,4.80
2023-07-25T21:38:40.457Z,4.60
2023-07-25T21:41:14.563Z,4.50
2023-07-25T21:43:43.565Z,5.00
2023-07-25T21:46:12.069Z,4.80
2023-07-25T21:48:40.103Z,5.00
2023-07-25T21:51:08.892Z,4.80
2023-07-25T21:53:36.917Z,4.60
2023-07-25T21:56:08.485Z,4.70
2023-07-25T21:58:36.814Z,4.60
2023-07-25T22:01:05.461Z,5.60
2023-07-25T22:03:33.904Z,4.50
2023-07-25T22:06:02.124Z,4.40
2023-07-25T22:08:30.137Z,4.60
2023-07-25T22:10:58.412Z,4.70
2023-07-25T22:13:26.551Z,4.40
2023-07-25T22:15:54.819Z,5.30
2023-07-25T22:18:23.112Z,4.60
2023-07-25T22:20:53.109Z,5.10
2023-07-25T22:23:22.005Z,5.50
2023-07-25T22:25:50.365Z,4.90
2023-07-25T22:28:18.612Z,4.80
2023-07-25T22:30:46.766Z,4.40
2023-07-25T22:33:14.875Z,4.40
2023-07-25T22:35:42.874Z,4.50
2023-07-25T22:38:11.089Z,4.70
2023-07-25T22:40:40.013Z,4.50
2023-07-25T22:43:07.998Z,4.70
2023-07-25T22:45:36.053Z,5.20
2023-07-25T22:48:04.407Z,5.20
2023-07-25T22:50:32.371Z,5.00
2023-07-25T22:53:00.354Z,5.50
2023-07-25T22:55:28.404Z,5.70
2023-07-25T22:57:56.507Z,4.60
2023-07-25T23:00:24.635Z,5.00
2023-07-25T23:02:53.451Z,4.50
2023-07-25T23:05:21.628Z,5.20
2023-07-25T23:07:49.812Z,4.80
2023-07-25T23:10:17.851Z,5.40
2023-07-25T23:12:45.834Z,5.40
2023-07-25T23:15:14.641Z,5.00
2023-07-25T23:17:42.772Z,5.30
2023-07-25T23:20:12.122Z,4.80
2023-07-25T23:22:40.258Z,4.80
2023-07-25T23:25:08.369Z,5.60
2023-07-25T23:27:36.310Z,5.20
2023-07-25T23:30:04.860Z,6.40
2023-07-25T23:32:32.836Z,5.00
2023-07-25T23:35:01.236Z,5.10
2023-07-25T23:37:29.992Z,5.40
2023-07-25T23:39:58.103Z,5.30
2023-07-25T23:42:26.219Z,5.20
2023-07-25T23:44:54.325Z,5.20
2023-07-25T23:47:22.371Z,4.50
2023-07-25T23:49:50.560Z,5.20
2023-07-25T23:52:18.809Z,5.50
2023-07-25T23:54:46.920Z,5.00
2023-07-25T23:57:15.109Z,5.80
2023-07-25T23:59:43.285Z,5.40
